Time;durP1;ratioP1;P1;durP2;ratioP2;P2;SDS_P1;SDS_P2;PMS_P1;PMS_P2;Temp;Humidity;BMP_temperature;BMP_pressure;BME280_temperature;BME280_humidity;BME280_pressure;Samples;Min_cycle;Max_cycle;Signal;HPM_P1;HPM_P2
2021/05/23 00:01:06;;;;;;;4.05;0.60;;;10.30;99.90;;;;;;5103812;28;20027;-73
2021/05/23 00:03:33;;;;;;;2.30;0.77;;;10.30;99.90;;;;;;5091504;28;20122;-73
2021/05/23 00:05:59;;;;;;;1.98;0.65;;;10.20;99.90;;;;;;5091144;28;20049;-73
2021/05/23 00:08:26;;;;;;;2.03;0.88;;;10.20;99.90;;;;;;5091492;28;20021;-73
2021/05/23 00:10:54;;;;;;;2.22;0.80;;;10.20;99.90;;;;;;5091407;28;20044;-73
2021/05/23 00:13:23;;;;;;;1.63;0.65;;;10.30;99.90;;;;;;5095213;28;20028;-73
2021/05/23 00:15:57;;;;;;;4.10;0.95;;;9.90;99.90;;;;;;5114289;28;20395;-73
2021/05/23 00:18:24;;;;;;;0.50;0.50;;;10.00;99.90;;;;;;5115939;28;20464;-73
2021/05/23 00:20:50;;;;;;;2.20;0.70;;;10.00;99.90;;;;;;5115242;28;20544;-73
2021/05/23 00:23:16;;;;;;;0.90;0.77;;;10.00;99.90;;;;;;5115361;28;20398;-73
2021/05/23 00:25:43;;;;;;;2.40;1.00;;;9.90;99.90;;;;;;5115709;28;20098;-73
2021/05/23 00:28:10;;;;;;;4.78;1.70;;;9.90;99.90;;;;;;5114776;28;20052;-73
2021/05/23 00:30:37;;;;;;;1.45;1.08;;;10.00;99.90;;;;;;5115618;28;20080;-73
2021/05/23 00:33:07;;;;;;;2.15;1.13;;;10.00;99.90;;;;;;5114984;28;20116;-73
2021/05/23 00:35:33;;;;;;;4.40;1.33;;;10.00;99.90;;;;;;5115552;28;20031;-73
2021/05/23 00:37:59;;;;;;;2.28;0.82;;;10.00;99.90;;;;;;5115340;27;20486;-73
2021/05/23 00:40:25;;;;;;;2.08;0.63;;;10.00;99.90;;;;;;5115441;28;20023;-73
2021/05/23 00:42:51;;;;;;;10.30;1.15;;;9.80;99.90;;;;;;5111971;28;20146;-73
2021/05/23 00:45:18;;;;;;;2.83;0.65;;;9.60;99.90;;;;;;5094495;28;20067;-73
2021/05/23 00:47:46;;;;;;;1.45;0.55;;;9.70;99.90;;;;;;5094603;28;20024;-73
2021/05/23 00:50:23;;;;;;;3.85;1.50;;;9.80;99.90;;;;;;5094644;28;20016;-73
2021/05/23 00:52:51;;;;;;;2.35;0.77;;;9.90;99.90;;;;;;5094695;28;20039;-73
2021/05/23 00:55:19;;;;;;;1.15;0.60;;;9.70;99.90;;;;;;5094513;28;20530;-73
2021/05/23 00:57:44;;;;;;;4.38;0.75;;;9.70;99.90;;;;;;5107385;28;20055;-73
2021/05/23 01:00:11;;;;;;;2.10;0.50;;;9.80;99.90;;;;;;5114727;28;20434;-73
2021/05/23 01:02:50;;;;;;;1.95;0.85;;;9.90;99.90;;;;;;5114735;28;20032;-73
2021/05/23 01:05:21;;;;;;;1.70;0.95;;;9.90;99.90;;;;;;5114547;28;20023;-73
2021/05/23 01:07:48;;;;;;;4.80;0.73;;;9.90;99.90;;;;;;5115078;28;20051;-73
2021/05/23 01:10:21;;;;;;;3.90;0.68;;;9.70;99.90;;;;;;5114653;28;20372;-73
2021/05/23 01:13:01;;;;;;;1.83;0.57;;;9.60;99.90;;;;;;5114369;28;20047;-73
2021/05/23 01:15:30;;;;;;;1.80;1.67;;;9.40;99.90;;;;;;5114658;28;20074;-73
2021/05/23 01:18:01;;;;;;;4.53;1.15;;;9.40;99.90;;;;;;5114432;28;20035;-73
2021/05/23 01:20:30;;;;;;;2.15;1.20;;;9.50;99.90;;;;;;5114459;28;20027;-73
2021/05/23 01:23:06;;;;;;;1.85;0.85;;;9.50;99.90;;;;;;5113782;28;20035;-73
2021/05/23 01:25:37;;;;;;;4.18;1.13;;;9.60;99.90;;;;;;5114085;28;20505;-73
2021/05/23 01:28:05;;;;;;;5.43;2.08;;;9.60;99.90;;;;;;5114458;28;20027;-73
2021/05/23 01:30:36;;;;;;;3.13;1.60;;;9.60;99.90;;;;;;5114326;28;20028;-73
2021/05/23 01:33:06;;;;;;;3.38;1.27;;;9.60;99.90;;;;;;5107356;28;20052;-73
2021/05/23 01:35:34;;;;;;;2.80;1.17;;;9.60;99.90;;;;;;5100844;28;20105;-73
2021/05/23 01:38:01;;;;;;;4.05;1.10;;;9.60;99.90;;;;;;5093965;28;20035;-73
2021/05/23 01:40:34;;;;;;;7.28;2.10;;;9.60;99.90;;;;;;5095149;28;20444;-73
2021/05/23 01:43:00;;;;;;;4.05;1.00;;;9.60;99.90;;;;;;5114022;28;20128;-73
2021/05/23 01:45:27;;;;;;;2.20;1.08;;;9.60;99.90;;;;;;5112090;28;20019;-73
2021/05/23 01:47:53;;;;;;;1.50;1.08;;;9.50;99.90;;;;;;5093278;28;20024;-73
2021/05/23 01:50:19;;;;;;;1.13;0.80;;;9.40;99.90;;;;;;5093408;28;20077;-73
2021/05/23 01:53:04;;;;;;;1.55;1.00;;;9.40;99.90;;;;;;5093597;28;20492;-73
2021/05/23 01:55:31;;;;;;;2.60;1.58;;;9.40;99.90;;;;;;5093361;28;20028;-73
2021/05/23 01:57:58;;;;;;;3.63;1.33;;;9.50;99.90;;;;;;5093471;28;20030;-73
2021/05/23 02:00:35;;;;;;;3.42;1.13;;;9.40;99.90;;;;;;5093024;28;20402;-73
2021/05/23 02:03:04;;;;;;;1.10;0.98;;;9.50;99.90;;;;;;5106084;28;20020;-73
2021/05/23 02:05:30;;;;;;;5.33;0.93;;;9.50;99.90;;;;;;5113585;28;20020;-73
2021/05/23 02:07:56;;;;;;;2.22;1.00;;;9.30;99.90;;;;;;5113814;28;20547;-73
2021/05/23 02:10:22;;;;;;;3.33;1.30;;;9.40;99.90;;;;;;5113588;28;20102;-73
2021/05/23 02:12:48;;;;;;;2.78;0.82;;;9.40;99.90;;;;;;5113451;28;20019;-73
2021/05/23 02:15:16;;;;;;;3.13;1.27;;;9.50;99.90;;;;;;5113275;28;20107;-73
2021/05/23 02:17:44;;;;;;;2.88;0.70;;;9.50;99.90;;;;;;5112618;28;20016;-73
2021/05/23 02:20:17;;;;;;;3.47;1.10;;;9.40;99.90;;;;;;5113434;28;20102;-73
2021/05/23 02:22:47;;;;;;;2.15;0.80;;;9.40;99.90;;;;;;5113145;28;20062;-73
2021/05/23 02:25:18;;;;;;;2.15;1.33;;;9.40;99.90;;;;;;5113397;28;20043;-73
2021/05/23 02:27:47;;;;;;;1.05;0.95;;;9.30;99.90;;;;;;5112970;28;20543;-73
2021/05/23 02:30:17;;;;;;;1.27;0.80;;;9.40;99.90;;;;;;5112384;28;20383;-73
2021/05/23 02:32:44;;;;;;;2.92;0.98;;;9.40;99.90;;;;;;5092499;28;20558;-73
2021/05/23 02:35:13;;;;;;;2.83;0.70;;;9.20;99.90;;;;;;5092758;28;20133;-73
2021/05/23 02:37:39;;;;;;;2.13;1.02;;;9.30;99.90;;;;;;5091967;28;20103;-73
2021/05/23 02:40:11;;;;;;;3.78;0.82;;;9.30;99.90;;;;;;5092698;28;20028;-73
2021/05/23 02:42:37;;;;;;;1.23;0.88;;;9.30;99.90;;;;;;5092485;28;20115;-73
2021/05/23 02:45:05;;;;;;;1.65;0.60;;;9.20;99.90;;;;;;5092243;28;20399;-73
2021/05/23 02:47:30;;;;;;;0.80;0.60;;;9.30;99.90;;;;;;5092460;28;20026;-73
2021/05/23 02:49:56;;;;;;;5.20;0.90;;;9.30;99.90;;;;;;5092418;28;20024;-73
2021/05/23 02:52:22;;;;;;;2.45;1.45;;;9.30;99.90;;;;;;5092484;28;20028;-73
2021/05/23 02:54:49;;;;;;;15.52;1.55;;;9.30;99.90;;;;;;5092284;28;20053;-73
2021/05/23 02:57:16;;;;;;;3.47;1.05;;;9.40;99.90;;;;;;5097726;28;20383;-73
2021/05/23 02:59:42;;;;;;;2.20;0.98;;;9.40;99.90;;;;;;5112336;28;20076;-73
2021/05/23 03:02:08;;;;;;;1.95;0.82;;;9.20;99.90;;;;;;5112698;28;20034;-73
2021/05/23 03:04:34;;;;;;;2.53;0.60;;;9.10;99.90;;;;;;5112481;28;20060;-73
2021/05/23 03:07:00;;;;;;;1.33;0.85;;;8.80;99.90;;;;;;5112488;28;20073;-73
2021/05/23 03:09:26;;;;;;;4.70;0.90;;;8.90;99.90;;;;;;5112702;28;20103;-73
2021/05/23 03:11:52;;;;;;;3.17;0.95;;;9.00;99.90;;;;;;5112282;28;20024;-73
2021/05/23 03:14:18;;;;;;;1.42;1.00;;;9.10;99.90;;;;;;5111783;28;20065;-73
2021/05/23 03:16:44;;;;;;;6.50;0.90;;;9.20;99.90;;;;;;5112199;28;20028;-73
2021/05/23 03:19:10;;;;;;;2.85;0.95;;;9.20;99.90;;;;;;5111841;28;20063;-73
2021/05/23 03:21:36;;;;;;;3.03;0.80;;;9.10;99.90;;;;;;5112334;28;20054;-73
2021/05/23 03:24:03;;;;;;;2.40;0.82;;;9.10;99.90;;;;;;5111962;28;20032;-73
2021/05/23 03:26:28;;;;;;;1.45;1.15;;;9.10;99.90;;;;;;5110570;28;20436;-73
2021/05/23 03:28:54;;;;;;;2.88;0.95;;;9.10;99.90;;;;;;5111596;28;20030;-73
2021/05/23 03:31:20;;;;;;;1.45;0.88;;;9.10;99.90;;;;;;5112075;28;20432;-73
2021/05/23 03:33:46;;;;;;;14.75;2.40;;;9.10;99.90;;;;;;5112029;28;20396;-73
2021/05/23 03:36:11;;;;;;;2.28;1.20;;;9.20;99.90;;;;;;5111957;28;20027;-73
2021/05/23 03:38:37;;;;;;;1.50;1.23;;;9.10;99.90;;;;;;5112274;28;20031;-73
2021/05/23 03:41:03;;;;;;;2.88;0.80;;;9.10;99.90;;;;;;5111976;28;20043;-73
2021/05/23 03:43:29;;;;;;;2.72;1.38;;;9.20;99.90;;;;;;5111700;28;20045;-73
2021/05/23 03:45:55;;;;;;;3.38;0.70;;;9.10;99.90;;;;;;5112468;28;20027;-73
2021/05/23 03:48:21;;;;;;;4.47;0.93;;;9.10;99.90;;;;;;5110944;28;20024;-73
2021/05/23 03:50:46;;;;;;;0.85;0.70;;;9.00;99.90;;;;;;5116338;28;20030;-73
2021/05/23 03:53:12;;;;;;;0.77;0.75;;;9.00;99.90;;;;;;5116209;28;20024;-73
2021/05/23 03:55:38;;;;;;;4.47;0.85;;;9.00;99.90;;;;;;5116280;28;20027;-73
2021/05/23 03:58:05;;;;;;;1.75;0.60;;;9.10;99.90;;;;;;5114295;28;20055;-73
2021/05/23 04:00:31;;;;;;;2.45;0.77;;;9.10;99.90;;;;;;5113179;27;20058;-73
2021/05/23 04:02:57;;;;;;;2.50;0.85;;;9.20;99.90;;;;;;5095373;28;20480;-73
2021/05/23 04:05:26;;;;;;;2.42;0.90;;;9.10;99.90;;;;;;5111860;28;20424;-73
2021/05/23 04:07:52;;;;;;;3.03;0.90;;;9.10;99.90;;;;;;5116073;28;20024;-73
2021/05/23 04:10:22;;;;;;;4.50;0.77;;;9.10;99.90;;;;;;5116056;28;20391;-73
2021/05/23 04:12:50;;;;;;;2.92;0.88;;;9.10;99.90;;;;;;5115492;28;20028;-73
2021/05/23 04:15:17;;;;;;;1.23;0.80;;;9.00;99.90;;;;;;5115703;28;20034;-73
2021/05/23 04:17:45;;;;;;;2.78;0.85;;;8.90;99.90;;;;;;5114569;28;20076;-73
2021/05/23 04:20:13;;;;;;;1.90;0.90;;;8.90;99.90;;;;;;5115677;28;20028;-73
2021/05/23 04:22:40;;;;;;;2.65;1.08;;;9.00;99.90;;;;;;5115077;28;20036;-73
2021/05/23 04:25:09;;;;;;;2.05;0.88;;;9.00;99.90;;;;;;5115152;27;20102;-73
2021/05/23 04:27:36;;;;;;;1.37;1.27;;;8.90;99.90;;;;;;5115725;28;20501;-73
2021/05/23 04:30:04;;;;;;;3.42;1.52;;;8.90;99.90;;;;;;5115416;28;20433;-73
2021/05/23 04:32:30;;;;;;;3.75;1.48;;;8.90;99.90;;;;;;5115410;28;20109;-73
2021/05/23 04:34:56;;;;;;;2.83;0.73;;;9.00;99.90;;;;;;5115299;28;20039;-73
2021/05/23 04:37:21;;;;;;;2.60;0.88;;;8.90;99.90;;;;;;5115358;28;20103;-73
2021/05/23 04:39:47;;;;;;;1.55;1.00;;;9.00;99.90;;;;;;5115135;28;20031;-73
2021/05/23 04:42:13;;;;;;;2.42;0.98;;;9.10;99.90;;;;;;5115124;28;20521;-73
2021/05/23 04:44:39;;;;;;;0.88;0.85;;;8.90;99.90;;;;;;5115290;28;20062;-73
2021/05/23 04:47:04;;;;;;;2.35;0.60;;;8.90;99.90;;;;;;5115142;28;20015;-73
2021/05/23 04:49:30;;;;;;;4.20;1.38;;;8.70;99.90;;;;;;5114945;28;20020;-73
2021/05/23 04:51:56;;;;;;;5.65;2.05;;;8.70;99.90;;;;;;5113690;28;20027;-73
2021/05/23 04:54:23;;;;;;;2.78;1.13;;;8.70;99.90;;;;;;5114574;28;20038;-73
2021/05/23 04:56:49;;;;;;;3.60;1.15;;;8.90;99.90;;;;;;5100804;28;20182;-73
2021/05/23 04:59:14;;;;;;;3.70;1.05;;;9.00;99.90;;;;;;5094463;28;20040;-73
2021/05/23 05:01:40;;;;;;;1.35;0.93;;;9.10;99.90;;;;;;5093889;28;20057;-73
2021/05/23 05:04:06;;;;;;;2.05;0.80;;;9.00;99.90;;;;;;5101852;28;20031;-73
2021/05/23 05:06:31;;;;;;;1.55;1.10;;;9.10;99.90;;;;;;5114706;28;20020;-73
2021/05/23 05:08:57;;;;;;;2.03;1.30;;;9.20;99.90;;;;;;5114505;28;20031;-73
2021/05/23 05:11:23;;;;;;;2.00;1.73;;;9.30;99.90;;;;;;5114586;28;20120;-73
2021/05/23 05:13:49;;;;;;;2.13;1.42;;;9.20;99.90;;;;;;5105034;28;20024;-73
2021/05/23 05:16:14;;;;;;;3.53;1.10;;;9.10;99.90;;;;;;5113899;28;20106;-73
2021/05/23 05:18:40;;;;;;;1.70;0.93;;;9.00;99.90;;;;;;5114001;28;20024;-73
2021/05/23 05:21:06;;;;;;;2.70;1.13;;;9.20;99.90;;;;;;5114747;28;20043;-73
2021/05/23 05:23:32;;;;;;;2.85;1.05;;;9.30;99.90;;;;;;5114253;28;20035;-73
2021/05/23 05:26:00;;;;;;;2.47;1.10;;;9.30;99.90;;;;;;5114054;28;20051;-73
2021/05/23 05:28:27;;;;;;;3.03;0.60;;;9.40;99.90;;;;;;5113065;28;20542;-73
2021/05/23 05:30:53;;;;;;;1.10;1.00;;;9.40;99.90;;;;;;5114529;28;20027;-73
2021/05/23 05:33:19;;;;;;;1.98;1.20;;;9.40;99.90;;;;;;5114165;28;20059;-73
2021/05/23 05:35:44;;;;;;;4.88;1.05;;;9.40;99.90;;;;;;5110922;28;20080;-73
2021/05/23 05:38:12;;;;;;;1.80;1.70;;;9.30;99.90;;;;;;5113448;28;20118;-73
2021/05/23 05:40:37;;;;;;;3.45;1.15;;;9.40;99.90;;;;;;5114151;28;20111;-73
2021/05/23 05:43:03;;;;;;;2.35;1.10;;;9.50;99.90;;;;;;5113979;28;20462;-73
2021/05/23 05:45:29;;;;;;;2.17;1.17;;;9.40;99.90;;;;;;5113945;28;20034;-73
2021/05/23 05:47:55;;;;;;;1.33;1.10;;;9.50;99.90;;;;;;5110244;28;20086;-73
2021/05/23 05:50:20;;;;;;;1.25;0.90;;;9.50;99.90;;;;;;5093686;28;20024;-73
2021/05/23 05:52:46;;;;;;;1.42;0.95;;;9.50;99.90;;;;;;5093189;28;20127;-73
2021/05/23 05:55:13;;;;;;;2.95;0.90;;;9.60;99.90;;;;;;5093641;28;20032;-73
2021/05/23 05:57:39;;;;;;;2.38;1.45;;;9.60;99.90;;;;;;5102900;28;20100;-73
2021/05/23 06:00:06;;;;;;;4.15;1.23;;;9.60;99.90;;;;;;5107790;28;20020;-73
2021/05/23 06:02:32;;;;;;;2.13;1.80;;;9.70;99.90;;;;;;5099251;28;20062;-73
2021/05/23 06:04:57;;;;;;;6.35;3.10;;;9.60;99.90;;;;;;5098300;28;20055;-73
2021/05/23 06:07:23;;;;;;;5.43;2.65;;;9.60;99.90;;;;;;5093282;28;20106;-73
2021/05/23 06:09:49;;;;;;;3.00;1.67;;;9.70;99.90;;;;;;5093910;28;20066;-73
2021/05/23 06:12:17;;;;;;;4.72;1.08;;;9.70;99.90;;;;;;5092532;28;20024;-73
2021/05/23 06:14:43;;;;;;;4.28;1.20;;;9.80;99.90;;;;;;5108971;28;20052;-73
2021/05/23 06:17:09;;;;;;;1.63;0.98;;;10.00;99.90;;;;;;5101341;28;20110;-73
2021/05/23 06:19:35;;;;;;;2.70;1.17;;;10.10;99.90;;;;;;5111043;28;20108;-73
2021/05/23 06:22:01;;;;;;;2.35;1.10;;;10.20;99.90;;;;;;5111048;28;20019;-73
2021/05/23 06:24:27;;;;;;;2.95;1.30;;;10.20;99.90;;;;;;5110580;28;20020;-73
2021/05/23 06:26:53;;;;;;;1.85;0.90;;;10.30;99.90;;;;;;5093998;28;20032;-73
2021/05/23 06:29:19;;;;;;;4.43;1.15;;;10.50;99.90;;;;;;5107297;28;20391;-73
2021/05/23 06:31:44;;;;;;;2.85;0.93;;;10.80;99.90;;;;;;5108111;28;20067;-73
2021/05/23 06:34:10;;;;;;;4.75;0.90;;;11.00;99.90;;;;;;5110997;28;20142;-73
2021/05/23 06:36:39;;;;;;;1.83;1.02;;;11.00;99.90;;;;;;5110366;28;20080;-73
2021/05/23 06:39:06;;;;;;;0.65;0.55;;;11.00;99.90;;;;;;5111345;28;20420;-73
2021/05/23 06:41:31;;;;;;;3.55;1.13;;;11.00;99.90;;;;;;5110656;28;20019;-73
2021/05/23 06:43:58;;;;;;;2.85;0.77;;;11.00;99.90;;;;;;5104162;28;20122;-73
2021/05/23 06:46:23;;;;;;;3.00;0.80;;;11.00;99.90;;;;;;5111061;28;20529;-73
2021/05/23 06:48:50;;;;;;;2.33;0.70;;;11.00;99.90;;;;;;5111798;28;20132;-73
2021/05/23 06:51:16;;;;;;;1.17;0.80;;;11.00;99.90;;;;;;5092590;28;20024;-72
2021/05/23 06:53:42;;;;;;;3.38;0.90;;;11.10;99.90;;;;;;5094379;28;20500;-72
2021/05/23 06:56:08;;;;;;;1.60;0.80;;;11.20;99.90;;;;;;5113413;28;20027;-72
2021/05/23 06:58:34;;;;;;;1.42;0.90;;;11.40;99.90;;;;;;5113341;28;20032;-72
2021/05/23 07:01:00;;;;;;;1.20;0.82;;;11.60;99.90;;;;;;5113344;28;20497;-72
2021/05/23 07:03:25;;;;;;;1.98;1.20;;;11.70;99.20;;;;;;5113158;28;20036;-72
2021/05/23 07:05:51;;;;;;;2.17;0.65;;;11.70;98.30;;;;;;5112775;28;20020;-72
2021/05/23 07:08:18;;;;;;;2.88;0.85;;;11.60;98.60;;;;;;5113485;28;20379;-72
2021/05/23 07:10:44;;;;;;;2.33;0.55;;;11.80;97.80;;;;;;5113187;28;20045;-72
2021/05/23 07:13:10;;;;;;;4.03;0.80;;;11.90;97.00;;;;;;5113042;28;20037;-72
2021/05/23 07:15:36;;;;;;;4.05;0.80;;;12.10;98.20;;;;;;5112901;28;20102;-72
2021/05/23 07:18:02;;;;;;;2.67;0.80;;;11.90;97.50;;;;;;5112925;28;20055;-72
2021/05/23 07:20:28;;;;;;;1.05;0.77;;;12.00;98.20;;;;;;5112816;28;20518;-72
2021/05/23 07:22:54;;;;;;;1.23;0.93;;;12.10;98.40;;;;;;5112700;28;20034;-72
2021/05/23 07:25:21;;;;;;;0.75;0.68;;;12.10;98.70;;;;;;5112753;28;20434;-72
2021/05/23 07:27:47;;;;;;;1.80;0.93;;;12.10;98.90;;;;;;5112860;28;20061;-72
2021/05/23 07:30:14;;;;;;;2.80;0.85;;;12.20;99.40;;;;;;5112782;28;20051;-72
2021/05/23 07:32:40;;;;;;;1.27;0.75;;;12.30;98.70;;;;;;5112146;28;20071;-72
2021/05/23 07:35:07;;;;;;;5.18;1.67;;;12.10;97.80;;;;;;5112819;28;20057;-72
2021/05/23 07:37:33;;;;;;;1.25;0.95;;;12.40;99.90;;;;;;5112807;28;20046;-72
2021/05/23 07:39:59;;;;;;;3.97;0.95;;;12.70;98.40;;;;;;5112834;28;20114;-72
2021/05/23 07:42:25;;;;;;;3.88;0.90;;;12.50;98.30;;;;;;5112773;28;20028;-72
2021/05/23 07:44:51;;;;;;;16.90;1.83;;;12.30;97.60;;;;;;5112680;28;20103;-72
2021/05/23 07:47:16;;;;;;;1.58;1.42;;;12.20;98.80;;;;;;5112781;28;20415;-72
2021/05/23 07:49:43;;;;;;;3.00;0.70;;;12.50;97.40;;;;;;5112372;28;20058;-72
2021/05/23 07:52:10;;;;;;;3.50;0.90;;;12.50;96.80;;;;;;5111406;28;20453;-72
2021/05/23 07:54:37;;;;;;;2.40;1.10;;;12.70;95.30;;;;;;5112920;28;20410;-72
2021/05/23 07:57:04;;;;;;;6.85;0.93;;;12.80;93.40;;;;;;5112607;28;20036;-72
2021/05/23 07:59:30;;;;;;;3.58;1.15;;;12.90;93.60;;;;;;5112727;28;20024;-72
2021/05/23 08:01:55;;;;;;;5.10;1.10;;;13.00;93.30;;;;;;5112618;28;20035;-72
2021/05/23 08:04:21;;;;;;;13.80;1.77;;;13.00;92.00;;;;;;5112098;28;20046;-72
2021/05/23 08:06:47;;;;;;;2.22;1.00;;;12.90;90.70;;;;;;5112488;28;20128;-72
2021/05/23 08:09:13;;;;;;;4.50;0.88;;;12.80;89.80;;;;;;5112678;28;20024;-72
2021/05/23 08:11:40;;;;;;;3.63;1.40;;;12.60;90.40;;;;;;5112580;28;20498;-72
2021/05/23 08:14:07;;;;;;;4.35;0.95;;;12.70;90.80;;;;;;5112111;28;20096;-72
2021/05/23 08:16:32;;;;;;;2.10;0.90;;;13.00;90.80;;;;;;5112510;28;20042;-72
2021/05/23 08:18:58;;;;;;;7.50;1.55;;;13.00;90.00;;;;;;5112009;28;20027;-72
2021/05/23 08:21:24;;;;;;;4.40;0.93;;;12.90;88.50;;;;;;5112509;28;20096;-72
2021/05/23 08:23:49;;;;;;;4.40;0.88;;;13.10;90.50;;;;;;5112390;28;20478;-72
2021/05/23 08:26:15;;;;;;;1.60;0.60;;;13.30;90.10;;;;;;5112193;28;20023;-72
2021/05/23 08:28:41;;;;;;;2.30;0.70;;;13.60;87.60;;;;;;5112388;28;20022;-72
2021/05/23 08:31:07;;;;;;;6.72;1.02;;;13.90;87.70;;;;;;5112179;28;20850;-72
2021/05/23 08:33:33;;;;;;;3.10;1.52;;;14.10;86.80;;;;;;5111918;28;20048;-72
2021/05/23 08:35:59;;;;;;;6.45;1.40;;;14.20;86.00;;;;;;5113527;28;20215;-72
2021/05/23 08:38:25;;;;;;;5.18;1.00;;;13.80;87.60;;;;;;5116247;27;20031;-72
2021/05/23 08:40:51;;;;;;;3.45;0.80;;;13.80;86.50;;;;;;5115969;28;20372;-72
2021/05/23 08:43:19;;;;;;;6.30;1.05;;;13.70;87.30;;;;;;5115871;28;20063;-72
2021/05/23 08:45:45;;;;;;;7.20;1.30;;;13.60;84.00;;;;;;5116080;28;20515;-72
2021/05/23 08:48:11;;;;;;;4.40;1.13;;;13.50;87.90;;;;;;5115649;28;20023;-73
2021/05/23 08:50:37;;;;;;;1.98;1.15;;;13.40;85.80;;;;;;5115925;28;20023;-72
2021/05/23 08:53:04;;;;;;;2.58;0.90;;;13.50;86.50;;;;;;5115784;28;20102;-72
2021/05/23 08:55:32;;;;;;;5.35;1.25;;;13.80;87.10;;;;;;5115758;28;20031;-72
2021/05/23 08:58:00;;;;;;;3.35;1.05;;;14.00;90.10;;;;;;5115554;28;20407;-72
2021/05/23 09:00:27;;;;;;;2.53;1.58;;;14.10;87.90;;;;;;5115869;28;20034;-72
2021/05/23 09:02:58;;;;;;;6.35;1.30;;;14.10;87.60;;;;;;5115118;28;20438;-72
2021/05/23 09:05:34;;;;;;;2.75;1.00;;;14.10;88.10;;;;;;5115569;28;20024;-72
2021/05/23 09:08:02;;;;;;;2.90;0.90;;;14.10;88.40;;;;;;5115316;28;20036;-72
2021/05/23 09:10:31;;;;;;;1.83;0.80;;;14.20;88.40;;;;;;5115771;28;20388;-72
2021/05/23 09:12:57;;;;;;;2.05;0.75;;;14.20;87.10;;;;;;5115268;28;20031;-72
2021/05/23 09:15:23;;;;;;;4.63;1.08;;;14.00;88.90;;;;;;5114871;28;20026;-72
2021/05/23 09:18:15;;;;;;;3.20;1.35;;;14.00;88.60;;;;;;5115563;28;20046;-72
2021/05/23 09:20:43;;;;;;;7.22;1.73;;;13.90;88.90;;;;;;5115350;28;20107;-72
2021/05/23 09:23:21;;;;;;;3.28;1.20;;;13.90;88.20;;;;;;5115184;28;20036;-73
2021/05/23 09:25:47;;;;;;;3.88;0.90;;;14.10;85.30;;;;;;5115617;28;20435;-72
2021/05/23 09:28:13;;;;;;;5.85;1.45;;;14.30;85.60;;;;;;5115059;28;20027;-72
2021/05/23 09:30:42;;;;;;;2.88;1.15;;;14.50;87.90;;;;;;5114702;28;20100;-72
2021/05/23 09:33:12;;;;;;;5.35;1.00;;;14.50;86.50;;;;;;5114851;28;20051;-73
2021/05/23 09:35:42;;;;;;;2.63;0.75;;;14.30;83.50;;;;;;5115215;28;20024;-72
2021/05/23 09:38:08;;;;;;;3.40;1.00;;;14.40;87.40;;;;;;5114914;28;20043;-73
2021/05/23 09:40:42;;;;;;;6.43;1.17;;;14.50;86.70;;;;;;5115132;28;20031;-72
2021/05/23 09:43:16;;;;;;;3.55;0.90;;;14.30;83.10;;;;;;5114760;28;20050;-72
2021/05/23 09:45:44;;;;;;;3.25;1.00;;;14.40;85.00;;;;;;5114568;28;20020;-72
2021/05/23 09:48:17;;;;;;;6.35;1.40;;;14.30;86.00;;;;;;5114561;28;20421;-72
2021/05/23 09:50:45;;;;;;;4.65;1.80;;;14.40;84.60;;;;;;5114753;28;20024;-72
2021/05/23 09:53:31;;;;;;;4.53;1.00;;;14.30;87.60;;;;;;5114684;28;20027;-72
2021/05/23 09:56:07;;;;;;;4.05;2.97;;;14.10;84.90;;;;;;5114667;28;20019;-72
2021/05/23 09:58:36;;;;;;;4.93;1.23;;;14.10;86.80;;;;;;5114596;28;20545;-72
2021/05/23 10:01:10;;;;;;;4.43;1.02;;;14.40;87.00;;;;;;5114516;28;20437;-72
2021/05/23 10:03:39;;;;;;;3.63;1.17;;;14.60;84.00;;;;;;5114451;28;20039;-72
2021/05/23 10:06:07;;;;;;;4.40;1.00;;;14.70;82.80;;;;;;5114337;28;20094;-72
2021/05/23 10:08:33;;;;;;;3.60;0.80;;;14.80;83.40;;;;;;5114451;28;20027;-72
2021/05/23 10:10:59;;;;;;;4.88;0.85;;;14.90;79.60;;;;;;5114610;28;20408;-72
2021/05/23 10:13:26;;;;;;;2.70;0.90;;;15.10;78.40;;;;;;5113657;28;20077;-72
2021/05/23 10:15:53;;;;;;;2.53;0.60;;;15.60;80.70;;;;;;5114359;28;20099;-72
2021/05/23 10:18:27;;;;;;;2.00;1.73;;;15.80;80.70;;;;;;5114265;28;20055;-72
2021/05/23 10:20:57;;;;;;;2.67;0.80;;;15.90;77.90;;;;;;5114092;28;20398;-72
2021/05/23 10:23:28;;;;;;;1.67;0.90;;;16.00;80.20;;;;;;5113840;28;20055;-72
2021/05/23 10:25:58;;;;;;;2.75;0.90;;;15.90;76.40;;;;;;5114134;28;20038;-72
2021/05/23 10:28:25;;;;;;;3.22;1.20;;;15.60;75.50;;;;;;5113575;28;20051;-73
2021/05/23 10:30:54;;;;;;;3.58;1.08;;;15.80;78.80;;;;;;5113914;28;20099;-72
2021/05/23 10:33:22;;;;;;;3.28;1.00;;;15.60;76.40;;;;;;5113518;28;20077;-73
2021/05/23 10:35:52;;;;;;;1.38;1.00;;;15.70;77.00;;;;;;5114071;28;20035;-72
2021/05/23 10:38:22;;;;;;;3.58;1.65;;;15.70;75.10;;;;;;5113790;28;20555;-73
2021/05/23 10:40:56;;;;;;;3.15;1.00;;;15.40;75.70;;;;;;5113808;28;20395;-72
2021/05/23 10:43:28;;;;;;;3.45;2.10;;;15.20;78.30;;;;;;5113216;28;20036;-72
2021/05/23 10:46:07;;;;;;;3.47;1.08;;;15.20;78.10;;;;;;5113697;28;20060;-72
2021/05/23 10:48:34;;;;;;;4.32;0.77;;;15.30;77.90;;;;;;5113699;28;20391;-72
2021/05/23 10:51:11;;;;;;;2.55;0.88;;;15.40;77.20;;;;;;5113731;28;20034;-72
2021/05/23 10:53:37;;;;;;;2.95;0.73;;;15.60;77.10;;;;;;5113440;28;20027;-72
2021/05/23 10:56:03;;;;;;;4.18;2.00;;;15.50;76.80;;;;;;5113488;28;20039;-72
2021/05/23 10:58:29;;;;;;;5.43;1.58;;;15.80;76.10;;;;;;5112531;28;20028;-72
2021/05/23 11:00:59;;;;;;;3.50;1.13;;;15.80;77.00;;;;;;5113205;28;20084;-72
2021/05/23 11:03:26;;;;;;;1.73;0.70;;;15.50;75.80;;;;;;5113043;28;20039;-73
2021/05/23 11:06:07;;;;;;;3.05;1.02;;;15.60;78.50;;;;;;5113488;28;20108;-73
2021/05/23 11:08:34;;;;;;;4.35;1.20;;;15.50;81.00;;;;;;5113234;28;20487;-72
2021/05/23 11:11:01;;;;;;;4.10;1.92;;;15.80;79.10;;;;;;5113168;28;20016;-73
2021/05/23 11:13:26;;;;;;;4.03;0.95;;;15.50;79.10;;;;;;5112704;28;20511;-72
2021/05/23 11:15:52;;;;;;;2.33;1.10;;;15.30;78.10;;;;;;5113747;28;20128;-72
2021/05/23 11:18:26;;;;;;;4.20;2.80;;;15.20;77.30;;;;;;5113135;28;20039;-72
2021/05/23 11:21:06;;;;;;;6.43;2.97;;;15.20;78.70;;;;;;5113000;28;20035;-72
2021/05/23 11:23:42;;;;;;;2.22;1.30;;;15.30;78.20;;;;;;5112875;28;20491;-72
2021/05/23 11:26:16;;;;;;;3.90;0.93;;;15.10;78.90;;;;;;5112904;28;20145;-72
2021/05/23 11:28:49;;;;;;;4.50;1.80;;;15.10;78.40;;;;;;5112928;28;20048;-72
2021/05/23 11:31:34;;;;;;;3.67;1.27;;;15.20;78.60;;;;;;5112842;28;20055;-72
2021/05/23 11:34:01;;;;;;;5.88;2.90;;;15.10;77.10;;;;;;5112993;28;20050;-72
2021/05/23 11:36:30;;;;;;;3.65;1.58;;;15.10;76.50;;;;;;5113001;28;20027;-73
2021/05/23 11:38:57;;;;;;;4.60;2.25;;;15.30;74.00;;;;;;5112942;28;20391;-72
2021/05/23 11:41:40;;;;;;;4.30;1.58;;;15.50;77.20;;;;;;5112521;28;20420;-72
2021/05/23 11:44:08;;;;;;;5.38;4.85;;;15.40;74.40;;;;;;5112846;28;20023;-72
2021/05/23 11:46:35;;;;;;;4.70;1.40;;;15.40;76.10;;;;;;5112714;28;20027;-72
2021/05/23 11:49:01;;;;;;;5.20;2.53;;;15.30;75.40;;;;;;5113176;28;20521;-72
2021/05/23 11:51:29;;;;;;;3.45;1.27;;;15.50;73.10;;;;;;5112687;28;20020;-72
2021/05/23 11:53:56;;;;;;;5.35;1.52;;;15.30;73.70;;;;;;5112720;28;20047;-72
2021/05/23 11:56:27;;;;;;;3.88;1.67;;;15.50;75.50;;;;;;5112423;28;20100;-72
2021/05/23 11:58:58;;;;;;;3.55;1.80;;;15.40;74.40;;;;;;5112625;28;20034;-72
2021/05/23 12:01:31;;;;;;;1.98;1.08;;;15.50;80.80;;;;;;5112652;28;20035;-72
2021/05/23 12:04:09;;;;;;;3.47;1.80;;;15.80;78.10;;;;;;5112599;28;20584;-72
2021/05/23 12:06:39;;;;;;;4.30;1.30;;;15.70;76.30;;;;;;5112585;28;20036;-72
2021/05/23 12:09:12;;;;;;;3.72;1.30;;;15.70;74.30;;;;;;5112658;28;20475;-72
2021/05/23 12:11:45;;;;;;;3.55;1.52;;;16.00;73.20;;;;;;5116561;28;20085;-72
2021/05/23 12:14:34;;;;;;;4.43;1.25;;;16.10;75.40;;;;;;5116429;28;20030;-72
2021/05/23 12:17:08;;;;;;;3.60;1.73;;;15.90;75.90;;;;;;5116608;28;20032;-72
2021/05/23 12:19:53;;;;;;;2.13;1.17;;;15.70;75.20;;;;;;5116468;28;20028;-72
2021/05/23 12:22:29;;;;;;;5.47;1.15;;;15.80;77.10;;;;;;5116388;28;20024;-72
2021/05/23 12:25:04;;;;;;;4.68;1.30;;;15.80;75.30;;;;;;5116224;28;20061;-72
2021/05/23 12:27:34;;;;;;;6.30;2.33;;;15.90;74.70;;;;;;5116354;28;20026;-72
2021/05/23 12:30:09;;;;;;;3.13;1.08;;;16.00;72.20;;;;;;5116309;28;20032;-72
2021/05/23 12:32:42;;;;;;;3.03;0.85;;;16.10;75.10;;;;;;5116036;28;20389;-72
2021/05/23 12:35:13;;;;;;;3.47;0.85;;;16.20;73.10;;;;;;5116320;28;20023;-72
2021/05/23 12:37:41;;;;;;;1.92;0.88;;;15.80;72.90;;;;;;5116158;28;20550;-72
2021/05/23 12:40:24;;;;;;;2.65;1.17;;;16.20;76.20;;;;;;5115840;28;20023;-72
2021/05/23 12:42:51;;;;;;;3.95;0.88;;;16.50;75.60;;;;;;5115894;28;20052;-72
2021/05/23 12:45:17;;;;;;;4.32;1.17;;;16.90;73.10;;;;;;5116098;28;20046;-72
2021/05/23 12:47:54;;;;;;;3.45;1.30;;;17.00;75.40;;;;;;5115940;28;20028;-72
2021/05/23 12:50:37;;;;;;;2.45;1.77;;;17.00;73.50;;;;;;5116037;28;20055;-72
2021/05/23 12:53:03;;;;;;;2.28;1.23;;;17.10;70.60;;;;;;5115674;28;20152;-72
2021/05/23 12:55:29;;;;;;;2.45;1.17;;;17.00;71.70;;;;;;5115576;28;20063;-72